sensor_id;sensor_type;location;lat;lon;timestamp;P1;durP1;ratioP1;P2;durP2;ratioP2
40459;SDS011;26164;51.138;16.952;2023-06-01T00:02:21;14.57;;;5.78;;
40459;SDS011;26164;51.138;16.952;2023-06-01T00:04:47;13.38;;;5.70;;
40459;SDS011;26164;51.138;16.952;2023-06-01T00:07:13;12.63;;;5.60;;
40459;SDS011;26164;51.138;16.952;2023-06-01T00:09:39;16.35;;;5.40;;
40459;SDS011;26164;51.138;16.952;2023-06-01T00:12:05;15.00;;;5.20;;
40459;SDS011;26164;51.138;16.952;2023-06-01T00:14:31;13.38;;;5.00;;
40459;SDS011;26164;51.138;16.952;2023-06-01T00:16:57;15.98;;;5.47;;
40459;SDS011;26164;51.138;16.952;2023-06-01T00:19:24;11.50;;;5.30;;
40459;SDS011;26164;51.138;16.952;2023-06-01T00:21:52;14.65;;;5.82;;
40459;SDS011;26164;51.138;16.952;2023-06-01T00:24:19;14.02;;;6.05;;
40459;SDS011;26164;51.138;16.952;2023-06-01T00:26:45;13.68;;;5.38;;
40459;SDS011;26164;51.138;16.952;2023-06-01T00:29:11;10.93;;;5.57;;
40459;SDS011;26164;51.138;16.952;2023-06-01T00:31:38;8.57;;;5.50;;
40459;SDS011;26164;51.138;16.952;2023-06-01T00:34:04;18.00;;;5.72;;
40459;SDS011;26164;51.138;16.952;2023-06-01T00:36:30;14.32;;;5.90;;
40459;SDS011;26164;51.138;16.952;2023-06-01T00:38:56;13.15;;;5.65;;
40459;SDS011;26164;51.138;16.952;2023-06-01T00:41:27;12.30;;;5.85;;
40459;SDS011;26164;51.138;16.952;2023-06-01T00:43:53;12.65;;;5.90;;
40459;SDS011;26164;51.138;16.952;2023-06-01T00:46:19;15.68;;;5.85;;
40459;SDS011;26164;51.138;16.952;2023-06-01T00:48:44;16.27;;;6.03;;
40459;SDS011;26164;51.138;16.952;2023-06-01T00:51:10;15.30;;;6.40;;
40459;SDS011;26164;51.138;16.952;2023-06-01T00:53:37;15.98;;;5.57;;
40459;SDS011;26164;51.138;16.952;2023-06-01T00:56:03;14.93;;;6.47;;
40459;SDS011;26164;51.138;16.952;2023-06-01T00:58:29;15.02;;;6.40;;
40459;SDS011;26164;51.138;16.952;2023-06-01T01:00:55;16.63;;;6.57;;
40459;SDS011;26164;51.138;16.952;2023-06-01T01:03:21;16.60;;;6.32;;
40459;SDS011;26164;51.138;16.952;2023-06-01T01:05:52;18.13;;;6.32;;
40459;SDS011;26164;51.138;16.952;2023-06-01T01:08:28;16.90;;;6.15;;
40459;SDS011;26164;51.138;16.952;2023-06-01T01:13:37;15.95;;;6.20;;
40459;SDS011;26164;51.138;16.952;2023-06-01T01:16:07;14.25;;;5.93;;
40459;SDS011;26164;51.138;16.952;2023-06-01T01:18:36;20.55;;;5.97;;
40459;SDS011;26164;51.138;16.952;2023-06-01T01:21:04;14.07;;;6.30;;
40459;SDS011;26164;51.138;16.952;2023-06-01T01:26:35;15.57;;;6.20;;
40459;SDS011;26164;51.138;16.952;2023-06-01T01:29:09;14.65;;;6.22;;
40459;SDS011;26164;51.138;16.952;2023-06-01T01:31:35;16.05;;;5.82;;
40459;SDS011;26164;51.138;16.952;2023-06-01T01:34:02;15.25;;;5.45;;
40459;SDS011;26164;51.138;16.952;2023-06-01T01:36:28;14.40;;;5.93;;
40459;SDS011;26164;51.138;16.952;2023-06-01T01:38:54;13.27;;;5.80;;
40459;SDS011;26164;51.138;16.952;2023-06-01T01:41:20;14.40;;;5.32;;
40459;SDS011;26164;51.138;16.952;2023-06-01T01:43:47;11.80;;;5.53;;
40459;SDS011;26164;51.138;16.952;2023-06-01T01:46:16;16.63;;;6.20;;
40459;SDS011;26164;51.138;16.952;2023-06-01T01:52:14;14.63;;;5.93;;
40459;SDS011;26164;51.138;16.952;2023-06-01T01:54:20;14.73;;;6.40;;
40459;SDS011;26164;51.138;16.952;2023-06-01T01:56:47;17.02;;;6.07;;
40459;SDS011;26164;51.138;16.952;2023-06-01T01:59:14;16.38;;;6.35;;
40459;SDS011;26164;51.138;16.952;2023-06-01T02:01:40;13.73;;;6.10;;
40459;SDS011;26164;51.138;16.952;2023-06-01T02:04:07;17.25;;;5.90;;
40459;SDS011;26164;51.138;16.952;2023-06-01T02:06:33;15.20;;;5.78;;
40459;SDS011;26164;51.138;16.952;2023-06-01T02:08:59;18.40;;;6.22;;
40459;SDS011;26164;51.138;16.952;2023-06-01T02:11:25;17.88;;;5.93;;
40459;SDS011;26164;51.138;16.952;2023-06-01T02:13:51;15.68;;;6.30;;
40459;SDS011;26164;51.138;16.952;2023-06-01T02:16:17;14.85;;;6.55;;
40459;SDS011;26164;51.138;16.952;2023-06-01T02:18:43;15.32;;;6.50;;
40459;SDS011;26164;51.138;16.952;2023-06-01T02:21:12;21.38;;;6.85;;
40459;SDS011;26164;51.138;16.952;2023-06-01T02:23:37;17.02;;;6.63;;
40459;SDS011;26164;51.138;16.952;2023-06-01T02:26:06;12.95;;;5.78;;
40459;SDS011;26164;51.138;16.952;2023-06-01T02:28:32;17.95;;;6.10;;
40459;SDS011;26164;51.138;16.952;2023-06-01T02:30:58;18.52;;;6.63;;
40459;SDS011;26164;51.138;16.952;2023-06-01T02:33:24;15.70;;;6.55;;
40459;SDS011;26164;51.138;16.952;2023-06-01T02:35:50;14.90;;;6.53;;
40459;SDS011;26164;51.138;16.952;2023-06-01T02:38:16;16.20;;;6.93;;
40459;SDS011;26164;51.138;16.952;2023-06-01T02:40:42;16.35;;;6.75;;
40459;SDS011;26164;51.138;16.952;2023-06-01T02:43:08;19.05;;;6.75;;
40459;SDS011;26164;51.138;16.952;2023-06-01T02:45:33;13.82;;;6.05;;
40459;SDS011;26164;51.138;16.952;2023-06-01T02:47:59;19.83;;;7.18;;
40459;SDS011;26164;51.138;16.952;2023-06-01T02:50:25;17.00;;;6.63;;
40459;SDS011;26164;51.138;16.952;2023-06-01T02:52:52;17.58;;;7.38;;
40459;SDS011;26164;51.138;16.952;2023-06-01T02:55:21;17.75;;;7.00;;
40459;SDS011;26164;51.138;16.952;2023-06-01T02:57:58;19.80;;;6.82;;
40459;SDS011;26164;51.138;16.952;2023-06-01T03:00:24;19.42;;;7.13;;
40459;SDS011;26164;51.138;16.952;2023-06-01T03:02:50;19.67;;;7.30;;
40459;SDS011;26164;51.138;16.952;2023-06-01T03:05:18;15.68;;;6.85;;
40459;SDS011;26164;51.138;16.952;2023-06-01T03:07:53;19.55;;;6.80;;
40459;SDS011;26164;51.138;16.952;2023-06-01T03:10:24;21.77;;;6.63;;
40459;SDS011;26164;51.138;16.952;2023-06-01T03:12:58;23.02;;;6.78;;
40459;SDS011;26164;51.138;16.952;2023-06-01T03:15:24;19.95;;;7.53;;
40459;SDS011;26164;51.138;16.952;2023-06-01T03:17:50;14.90;;;6.53;;
40459;SDS011;26164;51.138;16.952;2023-06-01T03:20:16;21.77;;;7.40;;
40459;SDS011;26164;51.138;16.952;2023-06-01T03:22:42;23.02;;;7.00;;
40459;SDS011;26164;51.138;16.952;2023-06-01T03:25:08;18.90;;;7.50;;
40459;SDS011;26164;51.138;16.952;2023-06-01T03:27:34;24.63;;;7.50;;
40459;SDS011;26164;51.138;16.952;2023-06-01T03:30:00;26.65;;;7.15;;
40459;SDS011;26164;51.138;16.952;2023-06-01T03:32:27;19.58;;;6.75;;
40459;SDS011;26164;51.138;16.952;2023-06-01T03:34:55;17.25;;;7.07;;
40459;SDS011;26164;51.138;16.952;2023-06-01T03:37:20;21.73;;;7.07;;
40459;SDS011;26164;51.138;16.952;2023-06-01T03:39:47;20.90;;;7.63;;
40459;SDS011;26164;51.138;16.952;2023-06-01T03:42:13;19.92;;;6.97;;
40459;SDS011;26164;51.138;16.952;2023-06-01T03:44:39;20.98;;;6.95;;
40459;SDS011;26164;51.138;16.952;2023-06-01T03:47:05;20.75;;;7.68;;
40459;SDS011;26164;51.138;16.952;2023-06-01T03:49:31;15.63;;;6.07;;
40459;SDS011;26164;51.138;16.952;2023-06-01T03:51:57;20.30;;;6.82;;
40459;SDS011;26164;51.138;16.952;2023-06-01T03:54:23;20.08;;;6.80;;
40459;SDS011;26164;51.138;16.952;2023-06-01T03:56:49;26.92;;;8.32;;
40459;SDS011;26164;51.138;16.952;2023-06-01T03:59:15;26.98;;;10.25;;
40459;SDS011;26164;51.138;16.952;2023-06-01T04:01:40;26.15;;;11.77;;
40459;SDS011;26164;51.138;16.952;2023-06-01T04:04:08;26.45;;;11.20;;
40459;SDS011;26164;51.138;16.952;2023-06-01T04:06:34;25.10;;;10.73;;
40459;SDS011;26164;51.138;16.952;2023-06-01T04:09:02;28.33;;;12.00;;
40459;SDS011;26164;51.138;16.952;2023-06-01T04:11:32;33.53;;;12.52;;
40459;SDS011;26164;51.138;16.952;2023-06-01T04:13:59;34.50;;;14.20;;
40459;SDS011;26164;51.138;16.952;2023-06-01T04:16:26;29.38;;;13.52;;
40459;SDS011;26164;51.138;16.952;2023-06-01T04:18:52;25.60;;;13.52;;
40459;SDS011;26164;51.138;16.952;2023-06-01T04:21:20;35.10;;;12.32;;
40459;SDS011;26164;51.138;16.952;2023-06-01T04:23:49;36.38;;;13.95;;
40459;SDS011;26164;51.138;16.952;2023-06-01T04:26:15;36.67;;;11.95;;
40459;SDS011;26164;51.138;16.952;2023-06-01T04:28:42;31.25;;;12.00;;
40459;SDS011;26164;51.138;16.952;2023-06-01T04:31:12;30.52;;;12.15;;
40459;SDS011;26164;51.138;16.952;2023-06-01T04:33:46;57.80;;;14.80;;
40459;SDS011;26164;51.138;16.952;2023-06-01T04:36:19;56.78;;;13.70;;
40459;SDS011;26164;51.138;16.952;2023-06-01T04:38:48;32.40;;;11.45;;
40459;SDS011;26164;51.138;16.952;2023-06-01T04:41:19;42.47;;;13.05;;
40459;SDS011;26164;51.138;16.952;2023-06-01T04:43:51;38.33;;;13.52;;
40459;SDS011;26164;51.138;16.952;2023-06-01T04:46:22;45.83;;;11.75;;
40459;SDS011;26164;51.138;16.952;2023-06-01T04:48:50;36.17;;;12.00;;
40459;SDS011;26164;51.138;16.952;2023-06-01T04:51:17;51.40;;;10.90;;
40459;SDS011;26164;51.138;16.952;2023-06-01T04:53:43;38.28;;;10.60;;
40459;SDS011;26164;51.138;16.952;2023-06-01T04:56:08;36.80;;;10.40;;
40459;SDS011;26164;51.138;16.952;2023-06-01T04:58:34;31.65;;;9.48;;
40459;SDS011;26164;51.138;16.952;2023-06-01T05:01:00;36.28;;;9.27;;
40459;SDS011;26164;51.138;16.952;2023-06-01T05:03:26;53.10;;;10.20;;
40459;SDS011;26164;51.138;16.952;2023-06-01T05:05:52;30.35;;;8.60;;
40459;SDS011;26164;51.138;16.952;2023-06-01T05:08:17;45.15;;;8.93;;
40459;SDS011;26164;51.138;16.952;2023-06-01T05:10:44;43.10;;;8.57;;
40459;SDS011;26164;51.138;16.952;2023-06-01T05:13:09;33.15;;;8.77;;
40459;SDS011;26164;51.138;16.952;2023-06-01T05:15:37;43.58;;;9.85;;
40459;SDS011;26164;51.138;16.952;2023-06-01T05:18:02;31.52;;;7.60;;
40459;SDS011;26164;51.138;16.952;2023-06-01T05:20:28;30.77;;;8.00;;
40459;SDS011;26164;51.138;16.952;2023-06-01T05:22:56;28.10;;;7.53;;
40459;SDS011;26164;51.138;16.952;2023-06-01T05:25:22;18.90;;;7.15;;
40459;SDS011;26164;51.138;16.952;2023-06-01T05:27:48;33.88;;;7.28;;
40459;SDS011;26164;51.138;16.952;2023-06-01T05:30:14;22.92;;;7.13;;
40459;SDS011;26164;51.138;16.952;2023-06-01T05:32:42;28.08;;;7.03;;
40459;SDS011;26164;51.138;16.952;2023-06-01T05:35:14;40.83;;;7.00;;
40459;SDS011;26164;51.138;16.952;2023-06-01T05:37:39;45.28;;;8.30;;
40459;SDS011;26164;51.138;16.952;2023-06-01T05:40:06;28.52;;;7.13;;
40459;SDS011;26164;51.138;16.952;2023-06-01T05:42:33;26.48;;;6.32;;
40459;SDS011;26164;51.138;16.952;2023-06-01T05:44:59;28.85;;;7.15;;
40459;SDS011;26164;51.138;16.952;2023-06-01T05:47:25;38.50;;;7.25;;
40459;SDS011;26164;51.138;16.952;2023-06-01T05:49:50;31.73;;;7.13;;
40459;SDS011;26164;51.138;16.952;2023-06-01T05:52:16;25.30;;;6.43;;
40459;SDS011;26164;51.138;16.952;2023-06-01T05:54:42;29.27;;;6.13;;
40459;SDS011;26164;51.138;16.952;2023-06-01T05:57:08;20.77;;;6.07;;
40459;SDS011;26164;51.138;16.952;2023-06-01T05:59:34;23.42;;;5.78;;
40459;SDS011;26164;51.138;16.952;2023-06-01T06:01:59;22.50;;;5.57;;
40459;SDS011;26164;51.138;16.952;2023-06-01T06:04:25;22.02;;;4.93;;
40459;SDS011;26164;51.138;16.952;2023-06-01T06:06:51;17.48;;;5.15;;
40459;SDS011;26164;51.138;16.952;2023-06-01T06:09:17;26.70;;;5.00;;
40459;SDS011;26164;51.138;16.952;2023-06-01T06:11:43;16.20;;;4.15;;
40459;SDS011;26164;51.138;16.952;2023-06-01T06:14:08;24.23;;;4.50;;
40459;SDS011;26164;51.138;16.952;2023-06-01T06:16:36;9.88;;;3.95;;
40459;SDS011;26164;51.138;16.952;2023-06-01T06:19:02;15.60;;;4.25;;
40459;SDS011;26164;51.138;16.952;2023-06-01T06:21:28;22.75;;;3.92;;
40459;SDS011;26164;51.138;16.952;2023-06-01T06:23:54;11.70;;;3.53;;
40459;SDS011;26164;51.138;16.952;2023-06-01T06:26:24;16.17;;;3.30;;
40459;SDS011;26164;51.138;16.952;2023-06-01T06:28:51;15.52;;;3.45;;
40459;SDS011;26164;51.138;16.952;2023-06-01T06:31:17;9.55;;;2.70;;
40459;SDS011;26164;51.138;16.952;2023-06-01T06:33:42;9.77;;;2.88;;
40459;SDS011;26164;51.138;16.952;2023-06-01T06:36:08;8.68;;;2.55;;
40459;SDS011;26164;51.138;16.952;2023-06-01T06:38:34;12.30;;;2.80;;
40459;SDS011;26164;51.138;16.952;2023-06-01T06:40:59;12.20;;;3.10;;
40459;SDS011;26164;51.138;16.952;2023-06-01T06:43:25;12.15;;;2.88;;
40459;SDS011;26164;51.138;16.952;2023-06-01T06:45:51;10.38;;;2.75;;
40459;SDS011;26164;51.138;16.952;2023-06-01T06:48:16;11.13;;;2.38;;
40459;SDS011;26164;51.138;16.952;2023-06-01T06:50:42;9.88;;;2.70;;
40459;SDS011;26164;51.138;16.952;2023-06-01T06:53:10;12.65;;;2.70;;
40459;SDS011;26164;51.138;16.952;2023-06-01T06:55:35;12.35;;;2.80;;
40459;SDS011;26164;51.138;16.952;2023-06-01T06:58:01;23.08;;;2.92;;
40459;SDS011;26164;51.138;16.952;2023-06-01T07:00:27;13.73;;;2.63;;
40459;SDS011;26164;51.138;16.952;2023-06-01T07:02:53;11.45;;;2.58;;
40459;SDS011;26164;51.138;16.952;2023-06-01T07:05:20;11.60;;;2.45;;
40459;SDS011;26164;51.138;16.952;2023-06-01T07:07:46;11.00;;;2.40;;
40459;SDS011;26164;51.138;16.952;2023-06-01T07:10:12;11.38;;;2.30;;
40459;SDS011;26164;51.138;16.952;2023-06-01T07:12:38;8.85;;;2.30;;
40459;SDS011;26164;51.138;16.952;2023-06-01T07:15:03;6.05;;;2.38;;
40459;SDS011;26164;51.138;16.952;2023-06-01T07:17:29;9.68;;;2.38;;
40459;SDS011;26164;51.138;16.952;2023-06-01T07:19:55;7.05;;;1.92;;
40459;SDS011;26164;51.138;16.952;2023-06-01T07:22:21;5.80;;;2.15;;
40459;SDS011;26164;51.138;16.952;2023-06-01T07:24:47;6.15;;;2.20;;
40459;SDS011;26164;51.138;16.952;2023-06-01T07:27:13;6.53;;;2.55;;
40459;SDS011;26164;51.138;16.952;2023-06-01T07:29:39;10.38;;;2.72;;
40459;SDS011;26164;51.138;16.952;2023-06-01T07:32:05;6.03;;;1.95;;
40459;SDS011;26164;51.138;16.952;2023-06-01T07:34:31;8.90;;;1.88;;
40459;SDS011;26164;51.138;16.952;2023-06-01T07:36:58;8.45;;;2.25;;
40459;SDS011;26164;51.138;16.952;2023-06-01T07:39:24;6.95;;;2.10;;
40459;SDS011;26164;51.138;16.952;2023-06-01T07:41:50;9.40;;;2.20;;
40459;SDS011;26164;51.138;16.952;2023-06-01T07:44:18;7.55;;;2.35;;
40459;SDS011;26164;51.138;16.952;2023-06-01T07:46:45;7.20;;;2.10;;
40459;SDS011;26164;51.138;16.952;2023-06-01T07:49:11;5.43;;;2.00;;
40459;SDS011;26164;51.138;16.952;2023-06-01T07:51:40;5.85;;;1.60;;
40459;SDS011;26164;51.138;16.952;2023-06-01T07:54:05;6.10;;;1.60;;
40459;SDS011;26164;51.138;16.952;2023-06-01T07:56:31;4.28;;;1.95;;
40459;SDS011;26164;51.138;16.952;2023-06-01T07:58:56;8.30;;;1.70;;
40459;SDS011;26164;51.138;16.952;2023-06-01T08:01:22;2.85;;;1.60;;
40459;SDS011;26164;51.138;16.952;2023-06-01T08:03:48;5.47;;;1.77;;
40459;SDS011;26164;51.138;16.952;2023-06-01T08:06:14;5.15;;;1.45;;
40459;SDS011;26164;51.138;16.952;2023-06-01T08:08:40;5.55;;;1.45;;
40459;SDS011;26164;51.138;16.952;2023-06-01T08:11:06;7.32;;;1.80;;
40459;SDS011;26164;51.138;16.952;2023-06-01T08:13:32;7.00;;;1.42;;
40459;SDS011;26164;51.138;16.952;2023-06-01T08:16:00;3.03;;;1.08;;
40459;SDS011;26164;51.138;16.952;2023-06-01T08:18:27;3.92;;;1.27;;
40459;SDS011;26164;51.138;16.952;2023-06-01T08:20:52;4.43;;;1.45;;
40459;SDS011;26164;51.138;16.952;2023-06-01T08:23:18;9.80;;;1.23;;
40459;SDS011;26164;51.138;16.952;2023-06-01T08:25:48;2.58;;;1.15;;
40459;SDS011;26164;51.138;16.952;2023-06-01T08:28:13;4.95;;;1.60;;
40459;SDS011;26164;51.138;16.952;2023-06-01T08:30:39;5.30;;;1.23;;
40459;SDS011;26164;51.138;16.952;2023-06-01T08:33:05;4.20;;;1.27;;
40459;SDS011;26164;51.138;16.952;2023-06-01T08:35:31;2.75;;;1.15;;
40459;SDS011;26164;51.138;16.952;2023-06-01T08:38:01;6.75;;;1.08;;
40459;SDS011;26164;51.138;16.952;2023-06-01T08:40:28;4.50;;;1.30;;
40459;SDS011;26164;51.138;16.952;2023-06-01T08:45:25;3.90;;;1.10;;
40459;SDS011;26164;51.138;16.952;2023-06-01T08:47:55;6.80;;;1.65;;
40459;SDS011;26164;51.138;16.952;2023-06-01T08:50:22;3.03;;;1.02;;
40459;SDS011;26164;51.138;16.952;2023-06-01T08:52:48;6.25;;;2.17;;
40459;SDS011;26164;51.138;16.952;2023-06-01T08:55:14;5.00;;;1.10;;
40459;SDS011;26164;51.138;16.952;2023-06-01T08:57:41;4.60;;;1.20;;
40459;SDS011;26164;51.138;16.952;2023-06-01T09:00:08;3.95;;;1.00;;
40459;SDS011;26164;51.138;16.952;2023-06-01T09:02:33;4.93;;;1.05;;
40459;SDS011;26164;51.138;16.952;2023-06-01T09:04:59;2.63;;;1.15;;
40459;SDS011;26164;51.138;16.952;2023-06-01T09:07:25;3.58;;;1.25;;
40459;SDS011;26164;51.138;16.952;2023-06-01T09:09:51;7.28;;;1.17;;
40459;SDS011;26164;51.138;16.952;2023-06-01T09:14:46;6.07;;;1.00;;
40459;SDS011;26164;51.138;16.952;2023-06-01T09:17:19;12.73;;;1.27;;
40459;SDS011;26164;51.138;16.952;2023-06-01T09:19:47;16.52;;;1.50;;
40459;SDS011;26164;51.138;16.952;2023-06-01T09:22:12;5.40;;;1.23;;
40459;SDS011;26164;51.138;16.952;2023-06-01T09:24:39;4.95;;;0.70;;
40459;SDS011;26164;51.138;16.952;2023-06-01T09:27:06;6.43;;;1.25;;
40459;SDS011;26164;51.138;16.952;2023-06-01T09:29:32;5.80;;;1.13;;
40459;SDS011;26164;51.138;16.952;2023-06-01T09:31:58;6.60;;;1.30;;
40459;SDS011;26164;51.138;16.952;2023-06-01T09:34:25;6.20;;;1.27;;
40459;SDS011;26164;51.138;16.952;2023-06-01T09:36:52;9.32;;;1.30;;
40459;SDS011;26164;51.138;16.952;2023-06-01T09:39:19;2.38;;;0.85;;
40459;SDS011;26164;51.138;16.952;2023-06-01T09:44:11;4.90;;;0.98;;
40459;SDS011;26164;51.138;16.952;2023-06-01T09:46:49;2.22;;;0.95;;
40459;SDS011;26164;51.138;16.952;2023-06-01T09:49:19;2.72;;;1.20;;
40459;SDS011;26164;51.138;16.952;2023-06-01T09:51:50;7.43;;;1.38;;
40459;SDS011;26164;51.138;16.952;2023-06-01T09:54:22;5.25;;;1.25;;
40459;SDS011;26164;51.138;16.952;2023-06-01T09:56:48;7.07;;;1.20;;
40459;SDS011;26164;51.138;16.952;2023-06-01T09:59:14;4.05;;;1.27;;
40459;SDS011;26164;51.138;16.952;2023-06-01T10:01:40;7.20;;;0.90;;
40459;SDS011;26164;51.138;16.952;2023-06-01T10:04:06;13.77;;;1.67;;
40459;SDS011;26164;51.138;16.952;2023-06-01T10:06:32;4.13;;;1.00;;
40459;SDS011;26164;51.138;16.952;2023-06-01T10:08:59;3.28;;;0.90;;
40459;SDS011;26164;51.138;16.952;2023-06-01T10:11:25;5.78;;;1.08;;
40459;SDS011;26164;51.138;16.952;2023-06-01T10:13:52;5.05;;;1.17;;
40459;SDS011;26164;51.138;16.952;2023-06-01T10:16:18;5.18;;;1.20;;
40459;SDS011;26164;51.138;16.952;2023-06-01T10:18:44;5.80;;;1.08;;
40459;SDS011;26164;51.138;16.952;2023-06-01T10:21:11;8.27;;;1.52;;
40459;SDS011;26164;51.138;16.952;2023-06-01T10:23:37;7.65;;;1.17;;
40459;SDS011;26164;51.138;16.952;2023-06-01T10:26:07;6.95;;;1.35;;
40459;SDS011;26164;51.138;16.952;2023-06-01T10:28:35;6.35;;;1.17;;
40459;SDS011;26164;51.138;16.952;2023-06-01T10:33:53;5.40;;;1.00;;
40459;SDS011;26164;51.138;16.952;2023-06-01T10:36:19;7.40;;;1.38;;
40459;SDS011;26164;51.138;16.952;2023-06-01T10:38:45;4.32;;;1.20;;
40459;SDS011;26164;51.138;16.952;2023-06-01T10:41:27;9.18;;;1.40;;
40459;SDS011;26164;51.138;16.952;2023-06-01T10:43:56;4.72;;;1.02;;
40459;SDS011;26164;51.138;16.952;2023-06-01T10:46:37;6.47;;;0.98;;
40459;SDS011;26164;51.138;16.952;2023-06-01T10:49:03;2.47;;;1.00;;
40459;SDS011;26164;51.138;16.952;2023-06-01T10:51:29;9.25;;;1.25;;
40459;SDS011;26164;51.138;16.952;2023-06-01T10:53:55;5.25;;;1.17;;
40459;SDS011;26164;51.138;16.952;2023-06-01T10:56:40;6.20;;;1.35;;
40459;SDS011;26164;51.138;16.952;2023-06-01T11:01:36;5.93;;;1.08;;
40459;SDS011;26164;51.138;16.952;2023-06-01T11:04:02;4.45;;;1.50;;
40459;SDS011;26164;51.138;16.952;2023-06-01T11:06:31;4.07;;;1.02;;
40459;SDS011;26164;51.138;16.952;2023-06-01T11:09:00;9.80;;;1.60;;
40459;SDS011;26164;51.138;16.952;2023-06-01T11:14:11;4.78;;;1.27;;
40459;SDS011;26164;51.138;16.952;2023-06-01T11:16:37;3.38;;;1.42;;
40459;SDS011;26164;51.138;16.952;2023-06-01T11:19:04;5.55;;;1.25;;
40459;SDS011;26164;51.138;16.952;2023-06-01T11:23:56;6.35;;;1.50;;
40459;SDS011;26164;51.138;16.952;2023-06-01T11:26:34;3.42;;;1.30;;
40459;SDS011;26164;51.138;16.952;2023-06-01T11:31:33;8.38;;;1.55;;
40459;SDS011;26164;51.138;16.952;2023-06-01T11:34:00;8.52;;;2.10;;
40459;SDS011;26164;51.138;16.952;2023-06-01T11:36:25;6.32;;;1.77;;
40459;SDS011;26164;51.138;16.952;2023-06-01T11:38:52;9.27;;;1.65;;
40459;SDS011;26164;51.138;16.952;2023-06-01T11:41:24;6.47;;;1.42;;
40459;SDS011;26164;51.138;16.952;2023-06-01T11:43:54;10.18;;;1.80;;
40459;SDS011;26164;51.138;16.952;2023-06-01T11:46:20;5.07;;;1.70;;
40459;SDS011;26164;51.138;16.952;2023-06-01T11:48:57;8.25;;;1.67;;
40459;SDS011;26164;51.138;16.952;2023-06-01T11:51:27;3.13;;;1.50;;
40459;SDS011;26164;51.138;16.952;2023-06-01T11:53:53;6.25;;;1.70;;
40459;SDS011;26164;51.138;16.952;2023-06-01T11:56:20;7.00;;;1.83;;
40459;SDS011;26164;51.138;16.952;2023-06-01T11:58:56;3.90;;;1.52;;
40459;SDS011;26164;51.138;16.952;2023-06-01T12:01:21;4.65;;;1.45;;
40459;SDS011;26164;51.138;16.952;2023-06-01T12:03:48;3.85;;;1.58;;
40459;SDS011;26164;51.138;16.952;2023-06-01T12:06:20;4.32;;;1.33;;
40459;SDS011;26164;51.138;16.952;2023-06-01T12:08:46;6.63;;;1.60;;
40459;SDS011;26164;51.138;16.952;2023-06-01T12:11:12;6.10;;;1.75;;
40459;SDS011;26164;51.138;16.952;2023-06-01T12:13:39;6.00;;;1.55;;
40459;SDS011;26164;51.138;16.952;2023-06-01T12:16:05;5.78;;;1.60;;
40459;SDS011;26164;51.138;16.952;2023-06-01T12:18:31;5.82;;;1.30;;
40459;SDS011;26164;51.138;16.952;2023-06-01T12:20:56;5.35;;;1.50;;
40459;SDS011;26164;51.138;16.952;2023-06-01T12:23:22;4.45;;;1.75;;
40459;SDS011;26164;51.138;16.952;2023-06-01T12:28:16;5.65;;;1.77;;
40459;SDS011;26164;51.138;16.952;2023-06-01T12:30:43;7.68;;;1.58;;
40459;SDS011;26164;51.138;16.952;2023-06-01T12:33:09;6.53;;;1.60;;
40459;SDS011;26164;51.138;16.952;2023-06-01T12:35:47;11.43;;;1.83;;
40459;SDS011;26164;51.138;16.952;2023-06-01T12:38:13;6.75;;;1.83;;
40459;SDS011;26164;51.138;16.952;2023-06-01T12:40:38;8.65;;;1.63;;
40459;SDS011;26164;51.138;16.952;2023-06-01T12:43:05;7.97;;;1.80;;
40459;SDS011;26164;51.138;16.952;2023-06-01T12:45:34;6.38;;;1.83;;
40459;SDS011;26164;51.138;16.952;2023-06-01T12:48:01;17.92;;;2.10;;
40459;SDS011;26164;51.138;16.952;2023-06-01T12:50:28;9.90;;;1.95;;
40459;SDS011;26164;51.138;16.952;2023-06-01T12:52:54;4.13;;;1.52;;
40459;SDS011;26164;51.138;16.952;2023-06-01T12:55:20;9.88;;;1.55;;
40459;SDS011;26164;51.138;16.952;2023-06-01T12:57:53;7.40;;;1.58;;
40459;SDS011;26164;51.138;16.952;2023-06-01T13:00:19;5.20;;;1.65;;
40459;SDS011;26164;51.138;16.952;2023-06-01T13:02:45;7.28;;;1.42;;
40459;SDS011;26164;51.138;16.952;2023-06-01T13:05:15;3.78;;;1.88;;
40459;SDS011;26164;51.138;16.952;2023-06-01T13:07:43;5.30;;;1.80;;
40459;SDS011;26164;51.138;16.952;2023-06-01T13:10:12;5.68;;;1.70;;
40459;SDS011;26164;51.138;16.952;2023-06-01T13:12:39;4.35;;;1.60;;
40459;SDS011;26164;51.138;16.952;2023-06-01T13:15:06;5.45;;;1.50;;
40459;SDS011;26164;51.138;16.952;2023-06-01T13:17:32;7.80;;;1.88;;
40459;SDS011;26164;51.138;16.952;2023-06-01T13:19:57;5.15;;;1.60;;
40459;SDS011;26164;51.138;16.952;2023-06-01T13:22:23;5.82;;;1.92;;
40459;SDS011;26164;51.138;16.952;2023-06-01T13:24:49;9.45;;;1.50;;
40459;SDS011;26164;51.138;16.952;2023-06-01T13:27:14;6.97;;;1.60;;
40459;SDS011;26164;51.138;16.952;2023-06-01T13:29:40;8.35;;;1.70;;
40459;SDS011;26164;51.138;16.952;2023-06-01T13:32:07;3.13;;;1.63;;
40459;SDS011;26164;51.138;16.952;2023-06-01T13:34:32;5.80;;;1.52;;
40459;SDS011;26164;51.138;16.952;2023-06-01T13:36:58;7.70;;;1.88;;
40459;SDS011;26164;51.138;16.952;2023-06-01T13:39:24;10.13;;;1.90;;
40459;SDS011;26164;51.138;16.952;2023-06-01T13:41:50;5.05;;;1.63;;
40459;SDS011;26164;51.138;16.952;2023-06-01T13:44:16;5.85;;;1.65;;
40459;SDS011;26164;51.138;16.952;2023-06-01T13:46:43;3.70;;;1.45;;
40459;SDS011;26164;51.138;16.952;2023-06-01T13:49:09;7.28;;;1.58;;
40459;SDS011;26164;51.138;16.952;2023-06-01T13:51:35;6.40;;;2.20;;
40459;SDS011;26164;51.138;16.952;2023-06-01T13:54:03;6.60;;;1.67;;
40459;SDS011;26164;51.138;16.952;2023-06-01T13:56:29;7.93;;;1.67;;
40459;SDS011;26164;51.138;16.952;2023-06-01T13:58:55;7.25;;;2.05;;
40459;SDS011;26164;51.138;16.952;2023-06-01T14:01:21;3.40;;;1.70;;
40459;SDS011;26164;51.138;16.952;2023-06-01T14:03:46;4.78;;;1.50;;
40459;SDS011;26164;51.138;16.952;2023-06-01T14:06:12;7.00;;;1.95;;
40459;SDS011;26164;51.138;16.952;2023-06-01T14:08:38;9.88;;;2.03;;
40459;SDS011;26164;51.138;16.952;2023-06-01T14:11:04;5.93;;;1.65;;
40459;SDS011;26164;51.138;16.952;2023-06-01T14:13:30;10.07;;;1.80;;
40459;SDS011;26164;51.138;16.952;2023-06-01T14:15:56;9.70;;;1.67;;
40459;SDS011;26164;51.138;16.952;2023-06-01T14:18:21;6.38;;;2.30;;
40459;SDS011;26164;51.138;16.952;2023-06-01T14:20:47;7.32;;;1.65;;
40459;SDS011;26164;51.138;16.952;2023-06-01T14:23:13;5.32;;;1.73;;
40459;SDS011;26164;51.138;16.952;2023-06-01T14:25:39;9.95;;;1.77;;
40459;SDS011;26164;51.138;16.952;2023-06-01T14:28:05;5.25;;;1.80;;
40459;SDS011;26164;51.138;16.952;2023-06-01T14:30:31;8.68;;;1.40;;
40459;SDS011;26164;51.138;16.952;2023-06-01T14:32:57;7.90;;;1.98;;
40459;SDS011;26164;51.138;16.952;2023-06-01T14:35:23;6.75;;;1.85;;
40459;SDS011;26164;51.138;16.952;2023-06-01T14:37:48;6.07;;;1.70;;
40459;SDS011;26164;51.138;16.952;2023-06-01T14:40:14;7.35;;;1.90;;
40459;SDS011;26164;51.138;16.952;2023-06-01T14:42:40;4.60;;;1.75;;
40459;SDS011;26164;51.138;16.952;2023-06-01T14:45:06;10.07;;;1.55;;
40459;SDS011;26164;51.138;16.952;2023-06-01T14:47:32;8.70;;;1.70;;
40459;SDS011;26164;51.138;16.952;2023-06-01T14:49:58;7.95;;;2.05;;
40459;SDS011;26164;51.138;16.952;2023-06-01T14:52:23;5.57;;;1.70;;
40459;SDS011;26164;51.138;16.952;2023-06-01T14:54:50;9.13;;;1.80;;
40459;SDS011;26164;51.138;16.952;2023-06-01T14:57:15;6.18;;;1.77;;